sensor_id;sensor_type;location;lat;lon;timestamp;temperature;humidity
70807;DHT22;58882;52.170;5.386;2023-04-27T00:01:35;14.00;44.50
70807;DHT22;58882;52.170;5.386;2023-04-27T00:04:03;14.00;44.70
70807;DHT22;58882;52.170;5.386;2023-04-27T00:06:30;13.90;44.80
70807;DHT22;58882;52.170;5.386;2023-04-27T00:08:58;13.90;44.90
70807;DHT22;58882;52.170;5.386;2023-04-27T00:11:25;13.80;44.90
70807;DHT22;58882;52.170;5.386;2023-04-27T00:13:52;13.80;45.10
70807;DHT22;58882;52.170;5.386;2023-04-27T00:16:18;13.80;45.10
70807;DHT22;58882;52.170;5.386;2023-04-27T00:18:45;13.80;45.10
70807;DHT22;58882;52.170;5.386;2023-04-27T00:21:12;13.70;45.10
70807;DHT22;58882;52.170;5.386;2023-04-27T00:23:39;13.70;45.20
70807;DHT22;58882;52.170;5.386;2023-04-27T00:26:06;13.70;45.20
70807;DHT22;58882;52.170;5.386;2023-04-27T00:28:33;13.70;46.10
70807;DHT22;58882;52.170;5.386;2023-04-27T00:30:59;13.70;45.10
70807;DHT22;58882;52.170;5.386;2023-04-27T00:33:29;13.70;45.10
70807;DHT22;58882;52.170;5.386;2023-04-27T00:36:00;13.70;45.20
70807;DHT22;58882;52.170;5.386;2023-04-27T00:38:28;13.70;45.20
70807;DHT22;58882;52.170;5.386;2023-04-27T00:41:05;13.60;46.10
70807;DHT22;58882;52.170;5.386;2023-04-27T00:43:41;13.60;45.20
70807;DHT22;58882;52.170;5.386;2023-04-27T00:46:10;13.60;45.20
70807;DHT22;58882;52.170;5.386;2023-04-27T00:48:39;13.60;45.20
70807;DHT22;58882;52.170;5.386;2023-04-27T00:51:06;13.60;45.30
70807;DHT22;58882;52.170;5.386;2023-04-27T00:53:35;13.60;45.50
70807;DHT22;58882;52.170;5.386;2023-04-27T00:56:03;13.60;45.30
70807;DHT22;58882;52.170;5.386;2023-04-27T00:58:30;13.60;45.20
70807;DHT22;58882;52.170;5.386;2023-04-27T01:00:57;13.60;45.20
70807;DHT22;58882;52.170;5.386;2023-04-27T01:03:25;13.60;45.30
70807;DHT22;58882;52.170;5.386;2023-04-27T01:05:52;13.50;45.30
70807;DHT22;58882;52.170;5.386;2023-04-27T01:08:19;13.50;45.40
70807;DHT22;58882;52.170;5.386;2023-04-27T01:10:46;13.50;45.40
70807;DHT22;58882;52.170;5.386;2023-04-27T01:13:15;13.50;45.70
70807;DHT22;58882;52.170;5.386;2023-04-27T01:15:41;13.50;45.70
70807;DHT22;58882;52.170;5.386;2023-04-27T01:18:08;13.50;45.70
70807;DHT22;58882;52.170;5.386;2023-04-27T01:20:35;13.50;45.80
70807;DHT22;58882;52.170;5.386;2023-04-27T01:23:04;13.50;45.80
70807;DHT22;58882;52.170;5.386;2023-04-27T01:25:31;13.50;45.80
70807;DHT22;58882;52.170;5.386;2023-04-27T01:28:01;13.50;45.70
70807;DHT22;58882;52.170;5.386;2023-04-27T01:30:28;13.50;45.50
70807;DHT22;58882;52.170;5.386;2023-04-27T01:32:57;13.50;45.40
70807;DHT22;58882;52.170;5.386;2023-04-27T01:35:24;13.50;45.40
70807;DHT22;58882;52.170;5.386;2023-04-27T01:37:56;13.50;45.30
70807;DHT22;58882;52.170;5.386;2023-04-27T01:40:23;13.50;45.30
70807;DHT22;58882;52.170;5.386;2023-04-27T01:42:49;13.50;45.30
70807;DHT22;58882;52.170;5.386;2023-04-27T01:45:16;13.50;45.40
70807;DHT22;58882;52.170;5.386;2023-04-27T01:47:43;13.40;45.30
70807;DHT22;58882;52.170;5.386;2023-04-27T01:50:10;13.40;45.20
70807;DHT22;58882;52.170;5.386;2023-04-27T01:52:38;13.40;45.10
70807;DHT22;58882;52.170;5.386;2023-04-27T01:55:05;13.40;45.00
70807;DHT22;58882;52.170;5.386;2023-04-27T01:57:32;13.40;45.00
70807;DHT22;58882;52.170;5.386;2023-04-27T01:59:59;13.40;45.00
70807;DHT22;58882;52.170;5.386;2023-04-27T02:02:26;13.40;45.10
70807;DHT22;58882;52.170;5.386;2023-04-27T02:04:53;13.40;45.00
70807;DHT22;58882;52.170;5.386;2023-04-27T02:07:20;13.30;45.00
70807;DHT22;58882;52.170;5.386;2023-04-27T02:09:48;13.30;45.00
70807;DHT22;58882;52.170;5.386;2023-04-27T02:12:15;13.30;46.00
70807;DHT22;58882;52.170;5.386;2023-04-27T02:14:41;13.30;44.90
70807;DHT22;58882;52.170;5.386;2023-04-27T02:17:08;13.30;45.00
70807;DHT22;58882;52.170;5.386;2023-04-27T02:19:35;13.30;45.00
70807;DHT22;58882;52.170;5.386;2023-04-27T02:22:04;13.30;45.00
70807;DHT22;58882;52.170;5.386;2023-04-27T02:24:30;13.20;44.90
70807;DHT22;58882;52.170;5.386;2023-04-27T02:26:59;13.30;44.90
70807;DHT22;58882;52.170;5.386;2023-04-27T02:29:32;13.20;44.90
70807;DHT22;58882;52.170;5.386;2023-04-27T02:31:59;13.20;45.10
70807;DHT22;58882;52.170;5.386;2023-04-27T02:34:26;13.20;45.20
70807;DHT22;58882;52.170;5.386;2023-04-27T02:36:53;13.20;45.20
70807;DHT22;58882;52.170;5.386;2023-04-27T02:39:20;13.20;45.20
70807;DHT22;58882;52.170;5.386;2023-04-27T02:41:47;13.20;45.30
70807;DHT22;58882;52.170;5.386;2023-04-27T02:44:14;13.20;45.40
70807;DHT22;58882;52.170;5.386;2023-04-27T02:46:41;13.20;45.60
70807;DHT22;58882;52.170;5.386;2023-04-27T02:49:07;13.20;45.60
70807;DHT22;58882;52.170;5.386;2023-04-27T02:51:34;13.20;46.50
70807;DHT22;58882;52.170;5.386;2023-04-27T02:54:01;13.20;45.40
70807;DHT22;58882;52.170;5.386;2023-04-27T02:56:28;13.20;45.30
70807;DHT22;58882;52.170;5.386;2023-04-27T02:58:55;13.30;45.50
70807;DHT22;58882;52.170;5.386;2023-04-27T03:01:22;13.20;45.40
70807;DHT22;58882;52.170;5.386;2023-04-27T03:03:49;13.30;45.50
70807;DHT22;58882;52.170;5.386;2023-04-27T03:06:16;13.30;45.30
70807;DHT22;58882;52.170;5.386;2023-04-27T03:08:43;13.30;45.30
70807;DHT22;58882;52.170;5.386;2023-04-27T03:11:10;13.30;45.40
70807;DHT22;58882;52.170;5.386;2023-04-27T03:13:38;13.30;45.50
70807;DHT22;58882;52.170;5.386;2023-04-27T03:16:09;13.30;45.20
70807;DHT22;58882;52.170;5.386;2023-04-27T03:18:38;13.30;45.10
70807;DHT22;58882;52.170;5.386;2023-04-27T03:21:09;13.20;44.90
70807;DHT22;58882;52.170;5.386;2023-04-27T03:23:36;13.20;44.80
70807;DHT22;58882;52.170;5.386;2023-04-27T03:26:08;13.20;44.80
70807;DHT22;58882;52.170;5.386;2023-04-27T03:28:35;13.20;45.00
70807;DHT22;58882;52.170;5.386;2023-04-27T03:31:06;13.10;45.10
70807;DHT22;58882;52.170;5.386;2023-04-27T03:33:33;13.10;45.20
70807;DHT22;58882;52.170;5.386;2023-04-27T03:36:00;13.10;45.10
70807;DHT22;58882;52.170;5.386;2023-04-27T03:38:27;13.10;45.00
70807;DHT22;58882;52.170;5.386;2023-04-27T03:40:54;13.10;45.00
70807;DHT22;58882;52.170;5.386;2023-04-27T03:43:23;13.10;44.80
70807;DHT22;58882;52.170;5.386;2023-04-27T03:45:50;13.10;44.90
70807;DHT22;58882;52.170;5.386;2023-04-27T03:48:18;13.10;44.90
70807;DHT22;58882;52.170;5.386;2023-04-27T03:50:46;13.00;44.80
70807;DHT22;58882;52.170;5.386;2023-04-27T03:53:14;13.00;44.80
70807;DHT22;58882;52.170;5.386;2023-04-27T03:55:43;13.00;44.70
70807;DHT22;58882;52.170;5.386;2023-04-27T03:58:11;13.00;44.70
70807;DHT22;58882;52.170;5.386;2023-04-27T04:00:50;12.90;44.70
70807;DHT22;58882;52.170;5.386;2023-04-27T04:03:17;12.90;44.80
70807;DHT22;58882;52.170;5.386;2023-04-27T04:05:45;12.90;45.00
70807;DHT22;58882;52.170;5.386;2023-04-27T04:08:13;12.90;45.10
70807;DHT22;58882;52.170;5.386;2023-04-27T04:10:40;12.90;45.20
70807;DHT22;58882;52.170;5.386;2023-04-27T04:13:07;12.90;45.20
70807;DHT22;58882;52.170;5.386;2023-04-27T04:15:35;12.80;45.00
70807;DHT22;58882;52.170;5.386;2023-04-27T04:18:02;12.80;44.90
70807;DHT22;58882;52.170;5.386;2023-04-27T04:20:29;12.80;44.80
70807;DHT22;58882;52.170;5.386;2023-04-27T04:22:55;12.80;44.70
70807;DHT22;58882;52.170;5.386;2023-04-27T04:25:22;12.80;44.70
70807;DHT22;58882;52.170;5.386;2023-04-27T04:27:51;12.70;44.80
70807;DHT22;58882;52.170;5.386;2023-04-27T04:30:18;12.70;44.80
70807;DHT22;58882;52.170;5.386;2023-04-27T04:32:45;12.70;44.60
70807;DHT22;58882;52.170;5.386;2023-04-27T04:35:12;12.70;44.80
70807;DHT22;58882;52.170;5.386;2023-04-27T04:37:40;12.70;45.00
70807;DHT22;58882;52.170;5.386;2023-04-27T04:40:07;12.70;45.10
70807;DHT22;58882;52.170;5.386;2023-04-27T04:42:35;12.70;45.10
70807;DHT22;58882;52.170;5.386;2023-04-27T04:45:04;12.70;45.00
70807;DHT22;58882;52.170;5.386;2023-04-27T04:47:31;12.70;44.90
70807;DHT22;58882;52.170;5.386;2023-04-27T04:49:59;12.70;44.90
70807;DHT22;58882;52.170;5.386;2023-04-27T04:52:29;12.70;44.90
70807;DHT22;58882;52.170;5.386;2023-04-27T04:54:56;12.70;44.80
70807;DHT22;58882;52.170;5.386;2023-04-27T04:57:23;12.70;44.90
70807;DHT22;58882;52.170;5.386;2023-04-27T04:59:50;12.70;44.90
70807;DHT22;58882;52.170;5.386;2023-04-27T05:02:16;12.70;44.80
70807;DHT22;58882;52.170;5.386;2023-04-27T05:04:43;12.70;44.90
70807;DHT22;58882;52.170;5.386;2023-04-27T05:07:11;12.80;45.00
70807;DHT22;58882;52.170;5.386;2023-04-27T05:09:41;12.70;44.90
70807;DHT22;58882;52.170;5.386;2023-04-27T05:12:08;12.80;44.80
70807;DHT22;58882;52.170;5.386;2023-04-27T05:14:35;12.80;44.80
70807;DHT22;58882;52.170;5.386;2023-04-27T05:17:02;12.80;44.80
70807;DHT22;58882;52.170;5.386;2023-04-27T05:19:29;12.80;44.80
70807;DHT22;58882;52.170;5.386;2023-04-27T05:21:57;12.90;45.00
70807;DHT22;58882;52.170;5.386;2023-04-27T05:24:25;12.90;45.00
70807;DHT22;58882;52.170;5.386;2023-04-27T05:26:52;12.90;45.10
70807;DHT22;58882;52.170;5.386;2023-04-27T05:29:20;12.90;45.20
70807;DHT22;58882;52.170;5.386;2023-04-27T05:31:47;13.00;45.30
70807;DHT22;58882;52.170;5.386;2023-04-27T05:34:14;13.00;45.20
70807;DHT22;58882;52.170;5.386;2023-04-27T05:36:40;13.00;45.00
70807;DHT22;58882;52.170;5.386;2023-04-27T05:39:07;13.00;45.90
70807;DHT22;58882;52.170;5.386;2023-04-27T05:41:34;13.10;45.00
70807;DHT22;58882;52.170;5.386;2023-04-27T05:44:01;13.10;44.90
70807;DHT22;58882;52.170;5.386;2023-04-27T05:46:28;13.20;44.70
70807;DHT22;58882;52.170;5.386;2023-04-27T05:48:55;13.20;44.40
70807;DHT22;58882;52.170;5.386;2023-04-27T05:51:22;13.20;44.30
70807;DHT22;58882;52.170;5.386;2023-04-27T05:53:49;13.30;44.30
70807;DHT22;58882;52.170;5.386;2023-04-27T05:56:16;13.30;44.00
70807;DHT22;58882;52.170;5.386;2023-04-27T05:58:42;13.40;43.80
70807;DHT22;58882;52.170;5.386;2023-04-27T06:01:09;13.50;44.10
70807;DHT22;58882;52.170;5.386;2023-04-27T06:03:36;13.60;44.20
70807;DHT22;58882;52.170;5.386;2023-04-27T06:06:04;13.70;44.00
70807;DHT22;58882;52.170;5.386;2023-04-27T06:08:31;13.80;43.80
70807;DHT22;58882;52.170;5.386;2023-04-27T06:10:57;13.90;43.60
70807;DHT22;58882;52.170;5.386;2023-04-27T06:13:24;13.90;43.40
70807;DHT22;58882;52.170;5.386;2023-04-27T06:15:51;14.00;43.20
70807;DHT22;58882;52.170;5.386;2023-04-27T06:18:18;14.10;43.00
70807;DHT22;58882;52.170;5.386;2023-04-27T06:20:45;14.20;42.90
70807;DHT22;58882;52.170;5.386;2023-04-27T06:23:12;14.30;42.70
70807;DHT22;58882;52.170;5.386;2023-04-27T06:25:39;14.30;42.40
70807;DHT22;58882;52.170;5.386;2023-04-27T06:28:07;14.40;42.20
70807;DHT22;58882;52.170;5.386;2023-04-27T06:30:34;14.50;43.00
70807;DHT22;58882;52.170;5.386;2023-04-27T06:33:03;14.50;41.80
70807;DHT22;58882;52.170;5.386;2023-04-27T06:35:29;14.70;41.90
70807;DHT22;58882;52.170;5.386;2023-04-27T06:37:57;14.70;41.60
70807;DHT22;58882;52.170;5.386;2023-04-27T06:40:25;14.80;41.60
70807;DHT22;58882;52.170;5.386;2023-04-27T06:42:52;14.80;41.50
70807;DHT22;58882;52.170;5.386;2023-04-27T06:45:19;14.90;41.20
70807;DHT22;58882;52.170;5.386;2023-04-27T06:47:45;15.00;41.00
70807;DHT22;58882;52.170;5.386;2023-04-27T06:50:13;15.10;40.80
70807;DHT22;58882;52.170;5.386;2023-04-27T06:52:40;15.10;40.70
70807;DHT22;58882;52.170;5.386;2023-04-27T06:55:07;15.20;40.50
70807;DHT22;58882;52.170;5.386;2023-04-27T06:57:34;15.30;40.40
70807;DHT22;58882;52.170;5.386;2023-04-27T07:00:01;15.40;40.30
70807;DHT22;58882;52.170;5.386;2023-04-27T07:02:29;15.50;40.10
70807;DHT22;58882;52.170;5.386;2023-04-27T07:04:56;15.60;40.00
70807;DHT22;58882;52.170;5.386;2023-04-27T07:07:23;15.70;40.80
70807;DHT22;58882;52.170;5.386;2023-04-27T07:09:50;15.90;39.60
70807;DHT22;58882;52.170;5.386;2023-04-27T07:12:16;16.00;39.10
70807;DHT22;58882;52.170;5.386;2023-04-27T07:14:43;16.30;38.90
70807;DHT22;58882;52.170;5.386;2023-04-27T07:17:10;16.60;38.50
70807;DHT22;58882;52.170;5.386;2023-04-27T07:19:37;17.00;37.80
70807;DHT22;58882;52.170;5.386;2023-04-27T07:22:03;17.50;37.00
70807;DHT22;58882;52.170;5.386;2023-04-27T07:24:30;18.00;36.10
70807;DHT22;58882;52.170;5.386;2023-04-27T07:26:57;18.30;35.20
70807;DHT22;58882;52.170;5.386;2023-04-27T07:29:25;18.70;34.50
70807;DHT22;58882;52.170;5.386;2023-04-27T07:31:54;19.00;33.90
70807;DHT22;58882;52.170;5.386;2023-04-27T07:34:24;19.40;33.20
70807;DHT22;58882;52.170;5.386;2023-04-27T07:36:51;19.70;32.70
70807;DHT22;58882;52.170;5.386;2023-04-27T07:39:20;20.00;32.20
70807;DHT22;58882;52.170;5.386;2023-04-27T07:41:47;20.30;31.50
70807;DHT22;58882;52.170;5.386;2023-04-27T07:44:16;20.50;31.80
70807;DHT22;58882;52.170;5.386;2023-04-27T07:46:44;20.70;30.00
70807;DHT22;58882;52.170;5.386;2023-04-27T07:49:15;20.90;29.80
70807;DHT22;58882;52.170;5.386;2023-04-27T07:51:42;21.10;29.50
70807;DHT22;58882;52.170;5.386;2023-04-27T07:54:09;21.30;29.50
70807;DHT22;58882;52.170;5.386;2023-04-27T07:56:35;21.50;29.40
70807;DHT22;58882;52.170;5.386;2023-04-27T07:59:02;21.70;28.90
70807;DHT22;58882;52.170;5.386;2023-04-27T08:01:29;21.90;28.60
70807;DHT22;58882;52.170;5.386;2023-04-27T08:03:56;22.10;28.20
70807;DHT22;58882;52.170;5.386;2023-04-27T08:06:23;22.30;28.20
70807;DHT22;58882;52.170;5.386;2023-04-27T08:08:50;22.40;27.80
70807;DHT22;58882;52.170;5.386;2023-04-27T08:11:17;22.60;27.50
70807;DHT22;58882;52.170;5.386;2023-04-27T08:13:44;22.80;27.20
70807;DHT22;58882;52.170;5.386;2023-04-27T08:16:11;22.90;27.00
70807;DHT22;58882;52.170;5.386;2023-04-27T08:18:38;23.00;27.10
70807;DHT22;58882;52.170;5.386;2023-04-27T08:21:05;23.10;26.70
70807;DHT22;58882;52.170;5.386;2023-04-27T08:23:31;23.30;26.60
70807;DHT22;58882;52.170;5.386;2023-04-27T08:25:58;23.40;26.40
70807;DHT22;58882;52.170;5.386;2023-04-27T08:28:25;23.50;26.00
70807;DHT22;58882;52.170;5.386;2023-04-27T08:30:52;23.60;25.80
70807;DHT22;58882;52.170;5.386;2023-04-27T08:33:19;23.70;25.70
70807;DHT22;58882;52.170;5.386;2023-04-27T08:35:47;23.70;25.20
70807;DHT22;58882;52.170;5.386;2023-04-27T08:38:14;23.80;25.30
70807;DHT22;58882;52.170;5.386;2023-04-27T08:40:44;23.80;25.30
70807;DHT22;58882;52.170;5.386;2023-04-27T08:43:11;23.90;25.10
70807;DHT22;58882;52.170;5.386;2023-04-27T08:45:38;24.00;25.20
70807;DHT22;58882;52.170;5.386;2023-04-27T08:48:13;24.00;25.30
70807;DHT22;58882;52.170;5.386;2023-04-27T08:50:42;24.10;25.40
70807;DHT22;58882;52.170;5.386;2023-04-27T08:53:19;24.20;25.30
70807;DHT22;58882;52.170;5.386;2023-04-27T08:55:49;24.30;25.30
70807;DHT22;58882;52.170;5.386;2023-04-27T08:58:16;24.40;25.10
70807;DHT22;58882;52.170;5.386;2023-04-27T09:00:44;24.50;24.90
70807;DHT22;58882;52.170;5.386;2023-04-27T09:03:22;24.60;24.50
70807;DHT22;58882;52.170;5.386;2023-04-27T09:05:50;24.70;24.50
70807;DHT22;58882;52.170;5.386;2023-04-27T09:08:49;24.80;24.40
70807;DHT22;58882;52.170;5.386;2023-04-27T09:13:57;24.90;24.40
70807;DHT22;58882;52.170;5.386;2023-04-27T09:16:25;25.10;24.40
70807;DHT22;58882;52.170;5.386;2023-04-27T09:18:55;25.20;24.30
70807;DHT22;58882;52.170;5.386;2023-04-27T09:21:24;25.30;24.10
70807;DHT22;58882;52.170;5.386;2023-04-27T09:23:51;25.50;23.90
70807;DHT22;58882;52.170;5.386;2023-04-27T09:26:20;25.60;23.80
70807;DHT22;58882;52.170;5.386;2023-04-27T09:28:52;25.70;23.60
70807;DHT22;58882;52.170;5.386;2023-04-27T09:31:19;25.80;23.40
70807;DHT22;58882;52.170;5.386;2023-04-27T09:33:53;25.80;23.30
70807;DHT22;58882;52.170;5.386;2023-04-27T09:36:21;25.90;23.20
70807;DHT22;58882;52.170;5.386;2023-04-27T09:38:50;26.00;23.10
70807;DHT22;58882;52.170;5.386;2023-04-27T09:41:18;26.00;23.10
70807;DHT22;58882;52.170;5.386;2023-04-27T09:43:46;26.10;23.10
70807;DHT22;58882;52.170;5.386;2023-04-27T09:46:13;26.20;23.10
70807;DHT22;58882;52.170;5.386;2023-04-27T09:48:41;26.20;23.00
70807;DHT22;58882;52.170;5.386;2023-04-27T09:51:08;26.20;22.80
70807;DHT22;58882;52.170;5.386;2023-04-27T09:53:39;26.10;22.80
70807;DHT22;58882;52.170;5.386;2023-04-27T09:59:17;26.10;22.80
70807;DHT22;58882;52.170;5.386;2023-04-27T10:01:56;26.20;22.70
70807;DHT22;58882;52.170;5.386;2023-04-27T10:07:17;26.30;22.50
70807;DHT22;58882;52.170;5.386;2023-04-27T10:09:49;26.40;22.60
70807;DHT22;58882;52.170;5.386;2023-04-27T10:12:20;26.30;22.40
70807;DHT22;58882;52.170;5.386;2023-04-27T10:14:55;26.20;22.50
70807;DHT22;58882;52.170;5.386;2023-04-27T10:17:32;26.10;22.40
70807;DHT22;58882;52.170;5.386;2023-04-27T10:20:05;26.00;22.30
70807;DHT22;58882;52.170;5.386;2023-04-27T10:22:45;25.90;22.30
70807;DHT22;58882;52.170;5.386;2023-04-27T10:27:54;25.90;22.60
70807;DHT22;58882;52.170;5.386;2023-04-27T10:30:23;25.80;22.50
70807;DHT22;58882;52.170;5.386;2023-04-27T10:32:54;25.90;22.50
70807;DHT22;58882;52.170;5.386;2023-04-27T10:35:31;25.90;22.60
70807;DHT22;58882;52.170;5.386;2023-04-27T10:38:10;25.90;22.50
70807;DHT22;58882;52.170;5.386;2023-04-27T10:43:39;25.80;22.40
70807;DHT22;58882;52.170;5.386;2023-04-27T10:48:37;25.70;22.50
70807;DHT22;58882;52.170;5.386;2023-04-27T10:51:04;25.70;22.40
70807;DHT22;58882;52.170;5.386;2023-04-27T10:53:38;25.60;22.50
70807;DHT22;58882;52.170;5.386;2023-04-27T10:56:05;25.50;22.30
70807;DHT22;58882;52.170;5.386;2023-04-27T10:58:33;25.50;22.40
70807;DHT22;58882;52.170;5.386;2023-04-27T11:01:07;25.50;23.20
70807;DHT22;58882;52.170;5.386;2023-04-27T11:03:34;25.50;22.30
70807;DHT22;58882;52.170;5.386;2023-04-27T11:06:04;25.50;22.30
70807;DHT22;58882;52.170;5.386;2023-04-27T11:08:31;25.50;22.30
70807;DHT22;58882;52.170;5.386;2023-04-27T11:10:59;25.60;22.30
70807;DHT22;58882;52.170;5.386;2023-04-27T11:13:27;25.70;22.20
70807;DHT22;58882;52.170;5.386;2023-04-27T11:15:56;25.80;22.20
70807;DHT22;58882;52.170;5.386;2023-04-27T11:18:26;25.90;22.90
70807;DHT22;58882;52.170;5.386;2023-04-27T11:21:04;25.90;22.00
70807;DHT22;58882;52.170;5.386;2023-04-27T11:23:32;25.90;22.10
70807;DHT22;58882;52.170;5.386;2023-04-27T11:26:19;26.00;22.10
70807;DHT22;58882;52.170;5.386;2023-04-27T11:31:22;25.90;22.00
70807;DHT22;58882;52.170;5.386;2023-04-27T11:33:49;25.90;22.00
70807;DHT22;58882;52.170;5.386;2023-04-27T11:36:18;25.90;22.10
70807;DHT22;58882;52.170;5.386;2023-04-27T11:38:47;25.90;22.10
70807;DHT22;58882;52.170;5.386;2023-04-27T11:41:14;25.90;22.20
70807;DHT22;58882;52.170;5.386;2023-04-27T11:43:42;25.80;22.10
70807;DHT22;58882;52.170;5.386;2023-04-27T11:46:12;25.80;22.20
70807;DHT22;58882;52.170;5.386;2023-04-27T11:48:39;25.80;22.10
70807;DHT22;58882;52.170;5.386;2023-04-27T11:51:09;25.70;22.20
70807;DHT22;58882;52.170;5.386;2023-04-27T11:53:38;25.60;22.30
70807;DHT22;58882;52.170;5.386;2023-04-27T11:56:06;25.50;22.40
70807;DHT22;58882;52.170;5.386;2023-04-27T11:58:39;25.40;22.40
70807;DHT22;58882;52.170;5.386;2023-04-27T12:01:07;25.30;22.40
70807;DHT22;58882;52.170;5.386;2023-04-27T12:03:34;25.30;22.40
70807;DHT22;58882;52.170;5.386;2023-04-27T12:06:02;25.20;22.40
70807;DHT22;58882;52.170;5.386;2023-04-27T12:08:49;25.20;22.40
70807;DHT22;58882;52.170;5.386;2023-04-27T12:11:16;25.10;22.40
70807;DHT22;58882;52.170;5.386;2023-04-27T12:13:43;25.10;22.40
70807;DHT22;58882;52.170;5.386;2023-04-27T12:16:10;25.10;22.60
70807;DHT22;58882;52.170;5.386;2023-04-27T12:18:37;25.00;22.50
70807;DHT22;58882;52.170;5.386;2023-04-27T12:21:04;25.00;22.60
70807;DHT22;58882;52.170;5.386;2023-04-27T12:23:33;25.00;22.50
70807;DHT22;58882;52.170;5.386;2023-04-27T12:26:00;24.90;22.60
70807;DHT22;58882;52.170;5.386;2023-04-27T12:28:27;24.90;22.70
70807;DHT22;58882;52.170;5.386;2023-04-27T12:30:54;24.80;22.70
70807;DHT22;58882;52.170;5.386;2023-04-27T12:33:21;24.80;22.80
70807;DHT22;58882;52.170;5.386;2023-04-27T12:35:48;24.70;22.70
70807;DHT22;58882;52.170;5.386;2023-04-27T12:38:14;24.70;22.70
70807;DHT22;58882;52.170;5.386;2023-04-27T12:40:41;24.70;22.70
70807;DHT22;58882;52.170;5.386;2023-04-27T12:43:08;24.60;22.80
70807;DHT22;58882;52.170;5.386;2023-04-27T12:45:35;24.60;22.80
70807;DHT22;58882;52.170;5.386;2023-04-27T12:48:02;24.50;22.60
70807;DHT22;58882;52.170;5.386;2023-04-27T12:50:31;24.50;22.70
70807;DHT22;58882;52.170;5.386;2023-04-27T12:52:58;24.40;22.70
70807;DHT22;58882;52.170;5.386;2023-04-27T12:55:25;24.50;22.90
70807;DHT22;58882;52.170;5.386;2023-04-27T12:58:00;24.40;22.90
70807;DHT22;58882;52.170;5.386;2023-04-27T13:00:27;24.30;22.90
70807;DHT22;58882;52.170;5.386;2023-04-27T13:02:55;24.30;23.10
70807;DHT22;58882;52.170;5.386;2023-04-27T13:05:23;24.20;23.00
70807;DHT22;58882;52.170;5.386;2023-04-27T13:07:50;24.10;23.10
70807;DHT22;58882;52.170;5.386;2023-04-27T13:10:16;24.00;23.10
70807;DHT22;58882;52.170;5.386;2023-04-27T13:12:44;24.00;23.20
70807;DHT22;58882;52.170;5.386;2023-04-27T13:15:11;23.90;23.20
70807;DHT22;58882;52.170;5.386;2023-04-27T13:17:37;23.80;23.20
70807;DHT22;58882;52.170;5.386;2023-04-27T13:20:07;23.80;23.20
70807;DHT22;58882;52.170;5.386;2023-04-27T13:22:34;23.70;23.30
70807;DHT22;58882;52.170;5.386;2023-04-27T13:25:01;23.70;23.30
70807;DHT22;58882;52.170;5.386;2023-04-27T13:27:28;23.70;23.20
70807;DHT22;58882;52.170;5.386;2023-04-27T13:29:54;23.60;23.20
70807;DHT22;58882;52.170;5.386;2023-04-27T13:32:21;23.60;23.20
70807;DHT22;58882;52.170;5.386;2023-04-27T13:34:48;23.60;23.30
70807;DHT22;58882;52.170;5.386;2023-04-27T13:37:16;23.50;23.20
70807;DHT22;58882;52.170;5.386;2023-04-27T13:39:43;23.50;23.40
70807;DHT22;58882;52.170;5.386;2023-04-27T13:42:09;23.40;23.40
70807;DHT22;58882;52.170;5.386;2023-04-27T13:44:37;23.40;23.50
70807;DHT22;58882;52.170;5.386;2023-04-27T13:47:03;23.40;23.50
70807;DHT22;58882;52.170;5.386;2023-04-27T13:49:30;23.30;23.60
70807;DHT22;58882;52.170;5.386;2023-04-27T13:51:58;23.30;23.60
70807;DHT22;58882;52.170;5.386;2023-04-27T13:54:25;23.20;23.80
70807;DHT22;58882;52.170;5.386;2023-04-27T13:56:52;23.20;23.80
70807;DHT22;58882;52.170;5.386;2023-04-27T13:59:19;23.10;23.80
70807;DHT22;58882;52.170;5.386;2023-04-27T14:01:47;23.10;23.80
70807;DHT22;58882;52.170;5.386;2023-04-27T14:04:14;23.00;23.90
70807;DHT22;58882;52.170;5.386;2023-04-27T14:06:41;23.00;24.00
70807;DHT22;58882;52.170;5.386;2023-04-27T14:09:08;22.90;23.90
70807;DHT22;58882;52.170;5.386;2023-04-27T14:11:34;22.90;24.00
70807;DHT22;58882;52.170;5.386;2023-04-27T14:14:21;22.90;24.00
70807;DHT22;58882;52.170;5.386;2023-04-27T14:16:48;22.80;24.00
70807;DHT22;58882;52.170;5.386;2023-04-27T14:19:17;22.80;24.00
70807;DHT22;58882;52.170;5.386;2023-04-27T14:21:46;22.80;24.10
70807;DHT22;58882;52.170;5.386;2023-04-27T14:24:13;22.70;24.00
70807;DHT22;58882;52.170;5.386;2023-04-27T14:26:40;22.70;24.20
70807;DHT22;58882;52.170;5.386;2023-04-27T14:29:09;22.70;24.30
70807;DHT22;58882;52.170;5.386;2023-04-27T14:31:38;22.60;24.30
70807;DHT22;58882;52.170;5.386;2023-04-27T14:34:06;22.60;24.30
70807;DHT22;58882;52.170;5.386;2023-04-27T14:36:33;22.60;24.30
70807;DHT22;58882;52.170;5.386;2023-04-27T14:39:00;22.60;24.30
70807;DHT22;58882;52.170;5.386;2023-04-27T14:41:27;22.60;24.20
70807;DHT22;58882;52.170;5.386;2023-04-27T14:43:54;22.50;24.20
70807;DHT22;58882;52.170;5.386;2023-04-27T14:46:21;22.50;24.20
70807;DHT22;58882;52.170;5.386;2023-04-27T14:48:48;22.50;24.30
70807;DHT22;58882;52.170;5.386;2023-04-27T14:51:16;22.40;24.30
70807;DHT22;58882;52.170;5.386;2023-04-27T14:53:42;22.40;24.40
70807;DHT22;58882;52.170;5.386;2023-04-27T14:56:10;22.40;24.30
70807;DHT22;58882;52.170;5.386;2023-04-27T14:58:37;22.40;24.40
70807;DHT22;58882;52.170;5.386;2023-04-27T15:01:05;22.30;24.40
70807;DHT22;58882;52.170;5.386;2023-04-27T15:03:32;22.30;24.50
70807;DHT22;58882;52.170;5.386;2023-04-27T15:06:00;22.30;24.40
70807;DHT22;58882;52.170;5.386;2023-04-27T15:08:27;22.20;24.40
70807;DHT22;58882;52.170;5.386;2023-04-27T15:10:56;22.20;24.40
70807;DHT22;58882;52.170;5.386;2023-04-27T15:13:26;22.20;24.50
70807;DHT22;58882;52.170;5.386;2023-04-27T15:15:56;22.10;25.30
70807;DHT22;58882;52.170;5.386;2023-04-27T15:18:24;22.10;24.60
70807;DHT22;58882;52.170;5.386;2023-04-27T15:20:52;22.10;24.60
70807;DHT22;58882;52.170;5.386;2023-04-27T15:23:20;22.00;24.70
70807;DHT22;58882;52.170;5.386;2023-04-27T15:25:48;21.90;24.40
70807;DHT22;58882;52.170;5.386;2023-04-27T15:28:15;21.80;24.20
70807;DHT22;58882;52.170;5.386;2023-04-27T15:30:43;21.70;24.50
70807;DHT22;58882;52.170;5.386;2023-04-27T15:33:11;21.50;24.60
70807;DHT22;58882;52.170;5.386;2023-04-27T15:35:38;21.40;24.80
70807;DHT22;58882;52.170;5.386;2023-04-27T15:38:07;21.40;24.70
70807;DHT22;58882;52.170;5.386;2023-04-27T15:40:34;21.30;24.80
70807;DHT22;58882;52.170;5.386;2023-04-27T15:43:01;21.20;24.70
70807;DHT22;58882;52.170;5.386;2023-04-27T15:45:28;21.10;24.70
70807;DHT22;58882;52.170;5.386;2023-04-27T15:47:55;21.10;24.70
70807;DHT22;58882;52.170;5.386;2023-04-27T15:50:22;21.00;24.70
70807;DHT22;58882;52.170;5.386;2023-04-27T15:52:50;21.00;24.80
70807;DHT22;58882;52.170;5.386;2023-04-27T15:55:17;21.00;25.60